METAR AND TAF INFORMATION
METAR FOR GMMI
ADDS - METARS form results

(2346 UTC 27 November 2021)
Data provider http://aviationweather.gov/metar/data/
 
Forecast for: GMMI (ESSAOUIRA , MA)
Text: TAF GMMI 272300Z 2800/2906 06009KT 8000 NSC
Forecast period: 0000 UTC 28 November 2021 to 0600 UTC 29 November 2021
Forecast type: FROM: standard forecast or significant change
Winds: from the ENE (60 degrees) at 10 MPH (9 knots; 4.6 m/s)
Visibility: 5 miles (8 km)
Ceiling: unknown
Clouds: missing
Weather: no significant weather forecast for this period

 AIRPORT MAP

 RUNWAY INFORMATION
Runway 16 Runway length 6890 ft Runway width 148 ft
Runway elevation 351 ft Runway displaced threshold 0 ft Runway heading 159
Runway 34 Runway length 6890 ft Runway width 148 ft
Runway elevation 421 ft Runway displaced threshold 0 ft Runway heading 339

 AIRPORT FREQUENCIES
Type TWR Name TWR Frequency 121.2 MHZ

 AIRPORT NEAR NAVIGATION AIDS
Type VOR-DME Name Essaouira Frequency 112700 KHZ



Powered by Heron Airways VA. All Rights Reserved © 2009 [v2.6.2]